Flight Briefing for CPX780

Departure Arrival
Incheon International Airport (RKSI)
Click to view FAA NOTAMS
Taiwan Taoyuan International Airport (RCTP)
Click to view FAA NOTAMS
Departure Time Arrival Time
N/A N/A
Aircraft Distance
B747-400BCF 788nm
Departure METAR Arrival METAR
RKSI 250300Z 20009KT 170V230 CAVOK 23/10 Q1016 NOSIG RCTP 250300Z 33007KT 9999 FEW020 BKN070 31/23 Q1011 NOSIG RMK A2988
Suggested Route
BOPTA1K BOPTA Z51 BEDES Y711 MUGUS Y742 SALMI Q11 DRAKE DRAKE1B


View recent IFR Routes data
Notes



Charts and Procedures

Charts for RKSI
No chart available
Charts for RCTP
No chart available

Windy.com Weather Map